Last 7 Days

Suisun Valley (SSV)

Hourly Data | America/Los_Angeles
as of 8/25/19 12:49 PM PDT
Date & Time Temp (°F) RH (%) Dew Pt (°F) Wind Spd (mph) Wind Dir (°) Wind Gust (mph) Latest Rain (In) Daily Rain (In) Daily Min Temp (°F) Daily Max Temp (°F)
8/25/19 - 1200 91.7 31 56.9 3.8 SW | 218 9.5 0.00 0.00 59.1 92.8
8/25/19 - 1100 89.4 34 57.5 2.4 S | 175 6.1 0.00 0.00 59.1 90.9
8/25/19 - 1000 81.3 47 58.8 1.8 SE | 127 4.8 0.00 0.00 59.1 86.0
8/25/19 - 0900 72.4 63 59.1 0.9 SE | 129 3.4 0.00 0.00 59.1 76.8
8/25/19 - 0800 63.5 80 57.1 0.4 N | 359 1.7 0.00 0.00 59.1 73.0
8/25/19 - 0700 59.5 85 55.0 0.4 NW | 308 1.7 0.00 0.00 59.1 73.0
8/25/19 - 0600 60.6 83 55.5 0.4 WSW | 245 1.7 0.00 0.00 59.6 73.0
8/25/19 - 0500 62.7 81 56.7 0.4 N | 359 1.7 0.00 0.00 61.8 73.0
8/25/19 - 0400 65.2 70 55.3 0.5 N | 11 2.4 0.00 0.00 63.6 73.0
8/25/19 - 0300 70.6 54 53.0 1.6 SW | 215 5.4 0.00 0.00 68.4 73.0
8/25/19 - 0200 71.0 55 53.8 1.6 SW | 234 6.4 0.00 0.00 68.4 73.0
8/25/19 - 0100 70.3 56 53.9 1.7 WSW | 251 6.8 0.00 0.00 55.2 91.9
8/25/19 - 0000 74.0 47 52.2 3.9 WSW | 240 12.5 0.00 0.00 55.2 91.9
8/24/19 - 2300 75.5 44 52.1 3.4 WSW | 258 10.1 0.00 0.00 55.2 91.9
8/24/19 - 2200 77.6 40 51.5 6.0 SW | 232 13.2 0.00 0.00 55.2 91.9
8/24/19 - 2100 79.9 37 51.6 7.4 WSW | 237 17.8 0.00 0.00 55.2 91.9
8/24/19 - 2000 82.5 36 53.2 5.5 WSW | 242 13.5 0.00 0.00 55.2 91.9
8/24/19 - 1900 85.7 37 56.7 4.2 SW | 230 11.5 0.00 0.00 55.2 91.9
8/24/19 - 1800 88.9 35 58.0 4.8 SW | 233 14.2 0.00 0.00 55.2 91.9
8/24/19 - 1700 90.0 34 57.8 8.4 WSW | 247 15.2 0.00 0.00 55.2 91.9
8/24/19 - 1600 91.1 33 57.9 7.6 WSW | 237 15.2 0.00 0.00 55.2 91.9
8/24/19 - 1500 91.2 32 57.1 7.4 SW | 235 14.5 0.00 0.00 55.2 91.9
8/24/19 - 1400 89.1 32 55.2 7.6 SW | 235 16.2 0.00 0.00 55.2 90.7
8/24/19 - 1300 85.8 34 54.2 8.6 SW | 234 16.8 0.00 0.00 55.2 87.8
8/24/19 - 1200 83.4 36 53.9 8.8 SW | 235 16.2 0.00 0.00 55.2 84.5
8/24/19 - 1100 81.1 36 52.0 6.8 WSW | 252 12.8 0.00 0.00 55.2 82.4
8/24/19 - 1000 77.4 42 52.7 5.8 WSW | 256 14.8 0.00 0.00 55.2 80.0
8/24/19 - 0900 72.5 54 54.7 4.9 SW | 233 11.8 0.00 0.00 55.2 76.0
8/24/19 - 0800 59.8 89 56.4 0.5 N | 357 3.1 0.00 0.00 55.2 66.0
8/24/19 - 0700 55.6 92 53.3 0.5 NNW | 345 2.4 0.00 0.00 55.2 62.4
8/24/19 - 0600 55.9 92 53.5 0.4 NW | 314 2.1 0.00 0.00 55.5 62.4
8/24/19 - 0500 56.6 91 54.1 0.6 N | 358 3.1 0.00 0.00 56.2 62.4
8/24/19 - 0400 57.8 90 54.8 0.5 NW | 322 3.4 0.00 0.00 57.1 62.4
8/24/19 - 0300 59.4 88 55.8 0.8 NW | 326 4.1 0.00 0.00 58.3 62.4
8/24/19 - 0200 60.4 86 56.1 0.4 SSE | 167 2.1 0.00 0.00 58.9 62.4
8/24/19 - 0100 65.1 77 57.8 2.1 WSW | 238 9.1 0.00 0.00 57.8 91.5
8/24/19 - 0000 66.6 76 58.9 6.0 SSW | 205 10.8 0.00 0.00 57.8 91.5
8/23/19 - 2300 66.8 76 58.9 6.0 SSW | 204 12.1 0.00 0.00 57.8 91.5
8/23/19 - 2200 68.9 70 58.5 6.1 SW | 215 12.1 0.00 0.00 57.8 91.5
8/23/19 - 2100 72.6 62 58.7 3.7 SW | 227 8.4 0.00 0.00 57.8 91.5
8/23/19 - 2000 76.5 55 59.3 4.5 SW | 232 11.5 0.00 0.00 57.8 91.5
8/23/19 - 1900 81.3 48 59.5 7.3 SW | 233 14.2 0.00 0.00 57.8 91.5
8/23/19 - 1800 83.2 45 59.5 9.4 SW | 227 18.5 0.00 0.00 57.8 91.5
8/23/19 - 1700 87.5 39 59.7 9.7 SW | 232 18.8 0.00 0.00 57.8 91.5
8/23/19 - 1600 90.4 33 57.5 8.2 WSW | 241 15.5 0.00 0.00 57.8 91.5
8/23/19 - 1500 90.1 32 56.7 6.8 SW | 236 13.8 0.00 0.00 57.8 91.1
8/23/19 - 1400 88.4 34 56.7 8.3 SW | 236 15.8 0.00 0.00 57.8 89.5
8/23/19 - 1300 86.6 38 57.9 7.6 SW | 236 13.8 0.00 0.00 57.8 88.4
8/23/19 - 1200 85.3 39 57.6 7.4 SW | 236 15.2 0.00 0.00 57.8 86.4
8/23/19 - 1100 84.1 40 57.1 6.6 WSW | 240 13.5 0.00 0.00 57.8 84.6
8/23/19 - 1000 81.6 48 59.5 2.8 SSW | 211 9.8 0.00 0.00 57.8 84.1
8/23/19 - 0900 72.2 70 62.0 0.7 NNE | 28 3.8 0.00 0.00 57.8 77.0
8/23/19 - 0800 62.6 88 58.9 0.5 NNW | 346 2.1 0.00 0.00 57.8 67.8
8/23/19 - 0700 58.6 91 56.0 0.5 NNW | 328 2.1 0.00 0.00 57.8 65.0
8/23/19 - 0600 58.4 89 55.1 0.4 NW | 323 1.7 0.00 0.00 57.8 65.0
8/23/19 - 0500 59.6 88 56.0 0.5 NNW | 336 2.4 0.00 0.00 58.9 65.0
8/23/19 - 0400 60.1 85 55.7 0.5 N | 5 2.7 0.00 0.00 59.7 65.0
8/23/19 - 0300 61.5 82 56.1 0.4 N | 9 1.7 0.00 0.00 60.6 65.0
8/23/19 - 0200 63.8 79 57.2 0.4 NE | 41 1.7 0.00 0.00 62.6 65.0
8/23/19 - 0100 66.1 75 58.0 0.5 N | 356 2.4 0.00 0.00 64.3 95.4
8/23/19 - 0000 68.4 71 58.8 0.5 W | 270 2.1 0.00 0.00 64.3 95.4
8/22/19 - 2300 71.6 65 59.3 0.5 NW | 311 2.7 0.00 0.00 64.3 95.4
8/22/19 - 2200 75.3 59 60.2 0.6 NNW | 343 2.7 0.00 0.00 64.3 95.4
8/22/19 - 2100 81.9 45 58.2 1.1 W | 263 6.1 0.00 0.00 64.3 95.4
8/22/19 - 2000 86.9 38 58.1 4.6 WSW | 257 12.1 0.00 0.00 64.3 95.4
8/22/19 - 1900 89.3 38 60.4 5.2 SW | 224 10.1 0.00 0.00 64.3 95.4
8/22/19 - 1800 92.1 37 62.1 6.4 SW | 228 13.2 0.00 0.00 64.3 95.4
8/22/19 - 1700 94.1 36 63.0 6.4 SW | 226 12.8 0.00 0.00 64.3 95.4
8/22/19 - 1600 95.0 35 62.8 6.1 SSW | 203 11.5 0.00 0.00 64.3 95.4
8/22/19 - 1500 94.3 38 64.6 4.8 S | 182 9.8 0.00 0.00 64.3 95.4
8/22/19 - 1400 92.2 42 65.8 5.5 SSE | 154 12.1 0.00 0.00 64.3 93.8
8/22/19 - 1300 89.7 45 65.5 4.4 S | 174 9.1 0.00 0.00 64.3 91.4
8/22/19 - 1200 86.2 51 66.2 4.5 SSE | 152 9.8 0.00 0.00 64.3 88.1
8/22/19 - 1100 83.2 57 66.4 3.7 SSE | 150 8.1 0.00 0.00 64.3 84.4
8/22/19 - 1000 79.9 65 67.1 2.8 SE | 128 6.8 0.00 0.00 64.3 81.8
8/22/19 - 0900 74.2 77 66.6 1.0 E | 91 3.8 0.00 0.00 64.3 76.9
8/22/19 - 0800 67.9 89 64.4 0.5 SSW | 205 2.7 0.00 0.00 64.3 74.3
8/22/19 - 0700 64.6 89 61.2 0.5 NNW | 329 2.7 0.00 0.00 64.3 74.3
8/22/19 - 0600 65.1 87 61.1 0.4 NNW | 341 1.7 0.00 0.00 64.5 74.3
8/22/19 - 0500 66.3 85 61.5 0.4 NW | 318 2.1 0.00 0.00 65.4 74.3
8/22/19 - 0400 67.6 83 62.2 0.5 NNW | 333 2.7 0.00 0.00 66.8 74.3
8/22/19 - 0300 68.6 80 62.1 0.5 E | 82 2.4 0.00 0.00 67.8 74.3
8/22/19 - 0200 72.0 74 63.3 0.8 NW | 306 4.4 0.00 0.00 69.7 74.3
8/22/19 - 0100 74.3 70 63.8 1.6 SSW | 201 5.1 0.00 0.00 54.2 92.8
8/22/19 - 0000 76.3 65 63.8 3.4 SW | 234 12.5 0.00 0.00 54.2 92.8
8/21/19 - 2300 76.6 64 63.5 2.6 SSW | 208 7.8 0.00 0.00 54.2 92.8
8/21/19 - 2200 77.4 61 63.0 1.3 W | 278 6.1 0.00 0.00 54.2 92.8
8/21/19 - 2100 80.3 55 62.9 2.9 SSW | 200 8.4 0.00 0.00 54.2 92.8
8/21/19 - 2000 82.5 51 62.7 3.4 SSW | 203 9.5 0.00 0.00 54.2 92.8
8/21/19 - 1900 87.9 41 61.2 4.2 SSW | 210 12.1 0.00 0.00 54.2 92.8
8/21/19 - 1800 89.7 34 57.3 7.9 SW | 222 14.8 0.00 0.00 54.2 92.8
8/21/19 - 1700 91.3 30 55.9 7.4 SW | 226 15.5 0.00 0.00 54.2 92.8
8/21/19 - 1600 92.1 31 56.8 7.6 WSW | 237 14.2 0.00 0.00 54.2 92.8
8/21/19 - 1500 91.3 32 57.4 8.4 WSW | 242 15.2 0.00 0.00 54.2 92.5
8/21/19 - 1400 89.1 35 57.6 7.8 SW | 234 16.2 0.00 0.00 54.2 90.3
8/21/19 - 1300 87.0 39 59.2 5.2 SW | 214 11.5 0.00 0.00 54.2 88.5
8/21/19 - 1200 83.5 45 59.7 4.4 SSE | 148 9.1 0.00 0.00 54.2 85.2
8/21/19 - 1100 80.3 49 59.5 4.1 SSE | 156 7.8 0.00 0.00 54.2 81.9
8/21/19 - 1000 76.2 57 59.8 2.8 SE | 131 7.4 0.00 0.00 54.2 79.0
8/21/19 - 0900 67.4 74 58.8 0.4 NE | 42 1.7 0.00 0.00 54.2 72.0
8/21/19 - 0800 59.8 89 56.4 0.5 N | 10 2.4 0.00 0.00 54.2 63.5
8/21/19 - 0700 54.8 92 52.5 0.5 NNW | 338 2.4 0.00 0.00 54.2 58.2
8/21/19 - 0600 55.2 91 52.6 0.4 N | 357 2.1 0.00 0.00 54.8 58.2
8/21/19 - 0500 55.9 90 53.1 0.5 NW | 317 2.4 0.00 0.00 55.3 58.2
8/21/19 - 0400 56.0 88 52.6 0.4 SW | 218 2.1 0.00 0.00 55.3 58.2
8/21/19 - 0300 56.6 88 53.1 0.7 SW | 232 4.4 0.00 0.00 55.5 58.2
8/21/19 - 0200 56.2 86 52.0 0.4 SW | 214 0.4 0.00 0.00 55.5 56.9
8/21/19 - 0100 57.7 84 52.8 0.4 NW | 309 0.4 0.00 0.00 50.0 83.5
8/21/19 - 0000 59.4 81 53.7 0.4 WSW | 244 0.4 0.00 0.00 50.0 83.5
8/20/19 - 2300 63.2 75 55.3 1.5 WSW | 249 8.4 0.00 0.00 50.0 83.5
8/20/19 - 2200 66.2 70 56.0 2.9 SW | 218 8.4 0.00 0.00 50.0 83.5
8/20/19 - 2100 69.7 61 55.6 3.6 SSW | 207 12.8 0.00 0.00 50.0 83.5
8/20/19 - 2000 73.4 53 55.4 7.1 SW | 225 18.2 0.00 0.00 50.0 83.5
8/20/19 - 1900 76.7 47 55.0 9.0 SW | 234 18.8 0.00 0.00 50.0 83.5
8/20/19 - 1800 80.9 45 57.5 8.4 SW | 234 16.2 0.00 0.00 50.0 83.5
8/20/19 - 1700 81.4 44 57.4 9.9 WSW | 239 17.8 0.00 0.00 50.0 83.5
8/20/19 - 1600 82.7 43 58.2 9.9 WSW | 240 17.2 0.00 0.00 50.0 83.5
8/20/19 - 1500 81.9 46 59.4 8.5 WSW | 241 15.5 0.00 0.00 50.0 82.8
8/20/19 - 1400 78.2 52 59.3 9.2 SW | 235 19.2 0.00 0.00 50.0 80.3
8/20/19 - 1300 74.0 59 58.9 9.8 SW | 232 18.5 0.00 0.00 50.0 76.0
8/20/19 - 1200 69.1 68 58.0 10.7 SW | 231 18.5 0.00 0.00 50.0 71.3
8/20/19 - 1100 67.1 72 57.6 8.7 SW | 228 17.5 0.00 0.00 50.0 68.1
8/20/19 - 1000 65.6 74 57.3 6.2 SW | 233 12.5 0.00 0.00 50.0 66.7
8/20/19 - 0900 62.2 82 56.8 4.7 WSW | 245 12.8 0.00 0.00 50.0 64.2
8/20/19 - 0800 56.4 93 54.3 0.9 NW | 318 5.4 0.00 0.00 50.0 60.4
8/20/19 - 0700 51.4 94 49.8 0.7 WSW | 252 5.1 0.00 0.00 50.0 60.4
8/20/19 - 0600 50.5 92 48.4 0.4 WNW | 293 0.4 0.00 0.00 50.0 60.4
8/20/19 - 0500 52.6 92 50.4 0.5 WNW | 293 3.1 0.00 0.00 51.4 60.4
8/20/19 - 0400 54.0 90 51.0 0.4 NW | 313 0.4 0.00 0.00 52.7 60.4
8/20/19 - 0300 58.0 85 53.6 1.4 W | 277 8.8 0.00 0.00 55.3 60.4
8/20/19 - 0200 58.9 85 54.3 2.8 WSW | 238 10.8 0.00 0.00 57.5 60.4
8/20/19 - 0100 61.7 79 55.3 4.0 WSW | 241 11.1 0.00 0.00 56.3 80.3
8/20/19 - 0000 60.8 80 54.6 0.8 NW | 316 5.1 0.00 0.00 56.3 80.3
8/19/19 - 2300 64.4 72 55.4 4.0 SW | 222 10.1 0.00 0.00 56.3 80.3
8/19/19 - 2200 65.9 70 56.0 4.7 SW | 214 9.8 0.00 0.00 56.3 80.3
8/19/19 - 2100 66.8 72 57.3 5.9 SW | 220 11.5 0.00 0.00 56.3 80.3
8/19/19 - 2000 69.6 66 57.8 8.7 SW | 229 21.5 0.00 0.00 56.3 80.3
8/19/19 - 1900 74.1 58 58.3 11.0 SW | 234 21.9 0.00 0.00 56.3 80.3
8/19/19 - 1800 78.0 52 59.0 9.8 SW | 234 18.5 0.00 0.00 56.3 80.3
8/19/19 - 1700 79.2 50 59.0 8.8 SW | 235 16.8 0.00 0.00 56.3 80.3
8/19/19 - 1600 79.2 50 59.2 8.9 SW | 233 16.8 0.00 0.00 56.3 80.3
8/19/19 - 1500 79.3 51 59.6 6.9 SW | 226 12.1 0.00 0.00 56.3 80.3
8/19/19 - 1400 75.5 58 59.5 6.9 SW | 218 13.2 0.00 0.00 56.3 78.2
8/19/19 - 1300 71.7 62 58.1 9.0 WSW | 240 16.2 0.00 0.00 56.3 73.4
8/19/19 - 1200 68.4 68 57.3 8.6 WSW | 240 15.5 0.00 0.00 56.3 70.7
8/19/19 - 1100 66.4 71 56.6 7.0 WSW | 237 15.5 0.00 0.00 56.3 67.2
8/19/19 - 1000 63.2 77 55.8 6.9 SW | 236 13.2 0.00 0.00 56.3 65.1
8/19/19 - 0900 60.0 84 55.2 6.9 WSW | 245 14.5 0.00 0.00 56.3 61.9
8/19/19 - 0800 58.3 88 54.8 7.2 WSW | 252 13.8 0.00 0.00 56.3 61.0
8/19/19 - 0700 57.3 90 54.4 4.2 WSW | 258 14.2 0.00 0.00 56.3 61.0
8/19/19 - 0600 57.0 89 53.9 2.6 WSW | 254 12.8 0.00 0.00 56.3 61.0
8/19/19 - 0500 57.9 88 54.4 6.9 SW | 230 15.2 0.00 0.00 56.7 61.0
8/19/19 - 0400 58.3 87 54.4 7.5 SW | 225 15.2 0.00 0.00 58.0 61.0
8/19/19 - 0300 59.2 84 54.2 5.8 SW | 219 12.5 0.00 0.00 58.6 61.0
8/19/19 - 0200 60.4 81 54.7 5.9 SW | 231 12.5 0.00 0.00 59.8 61.0
8/19/19 - 0100 60.6 82 55.0 6.8 SW | 219 12.1 0.00 0.00 51.9 80.2
8/19/19 - 0000 60.3 84 55.6 4.9 SSW | 196 10.8 0.00 0.00 51.9 80.2
8/18/19 - 2300 61.2 82 55.8 5.3 SSW | 197 9.8 0.00 0.00 51.9 80.2
8/18/19 - 2200 63.4 75 55.4 3.3 SW | 221 9.5 0.00 0.00 51.9 80.2
8/18/19 - 2100 65.0 70 54.9 5.0 SW | 226 12.1 0.00 0.00 51.9 80.2
8/18/19 - 2000 65.9 71 56.2 6.9 SW | 218 14.8 0.00 0.00 51.9 80.2
8/18/19 - 1900 71.1 62 57.3 8.4 SW | 217 15.5 0.00 0.00 51.9 80.2
8/18/19 - 1800 74.0 57 57.8 8.4 SW | 216 19.2 0.00 0.00 51.9 80.2
8/18/19 - 1700 75.6 55 58.3 8.9 SW | 220 17.8 0.00 0.00 51.9 80.2
8/18/19 - 1600 77.8 50 57.6 8.2 SW | 217 16.2 0.00 0.00 51.9 80.2
8/18/19 - 1500 79.0 46 56.4 7.7 SW | 217 14.8 0.00 0.00 51.9 80.2
8/18/19 - 1400 78.9 43 54.5 7.0 SW | 226 14.5 0.00 0.00 51.9 80.2
8/18/19 - 1300 75.5 51 56.1 8.4 WSW | 241 14.5 0.00 0.00 51.9 77.6
Max 95.0 94 67.1 11.0 - 21.9 0.00 0.00 69.7 95.4
Avg 72.3 63 57.3 4.4 - 9.9 0.00 - - -
Min 50.5 30 48.4 0.4 - 0.4 0.00 0.00 50.0 56.9
Total - - - - - - 0.00 - - -
Tip: Bookmark this page for easy future reference